createdAt,value
2023-02-12T00:01:23.954Z,75.53
2023-02-12T00:03:51.188Z,88.30
2023-02-12T00:06:18.283Z,40.40
2023-02-12T00:08:45.269Z,38.33
2023-02-12T00:11:16.029Z,42.95
2023-02-12T00:13:44.019Z,38.92
2023-02-12T00:16:19.352Z,35.20
2023-02-12T00:18:47.458Z,31.95
2023-02-12T00:21:14.948Z,33.88
2023-02-12T00:23:42.162Z,34.92
2023-02-12T00:26:17.937Z,34.63
2023-02-12T00:28:45.396Z,33.33
2023-02-12T00:31:17.100Z,32.92
2023-02-12T00:33:44.863Z,34.60
2023-02-12T00:36:17.237Z,33.85
2023-02-12T00:38:44.977Z,29.45
2023-02-12T00:41:12.165Z,27.55
2023-02-12T00:43:39.309Z,25.42
2023-02-12T00:46:07.128Z,26.80
2023-02-12T00:48:35.301Z,25.85
2023-02-12T00:51:02.841Z,25.75
2023-02-12T00:53:31.112Z,21.33
2023-02-12T00:55:58.623Z,21.00
2023-02-12T00:58:25.863Z,23.38
2023-02-12T01:00:54.221Z,23.23
2023-02-12T01:03:21.628Z,23.10
2023-02-12T01:05:48.560Z,24.92
2023-02-12T01:08:17.401Z,19.38
2023-02-12T01:10:44.918Z,21.55
2023-02-12T01:13:15.900Z,17.50
2023-02-12T01:15:43.197Z,18.35
2023-02-12T01:18:10.376Z,18.65
2023-02-12T01:20:37.368Z,19.95
2023-02-12T01:23:06.945Z,21.77
2023-02-12T01:25:37.105Z,20.38
2023-02-12T01:28:04.561Z,20.08
2023-02-12T01:30:31.687Z,21.42
2023-02-12T01:32:58.818Z,19.73
2023-02-12T01:35:26.031Z,22.55
2023-02-12T01:37:52.989Z,19.42
2023-02-12T01:40:20.259Z,19.38
2023-02-12T01:42:47.302Z,20.00
2023-02-12T01:45:14.299Z,21.75
2023-02-12T01:47:44.372Z,20.15
2023-02-12T01:50:18.004Z,19.85
2023-02-12T01:52:52.156Z,18.77
2023-02-12T01:55:19.820Z,20.23
2023-02-12T01:57:50.547Z,24.17
2023-02-12T02:00:23.995Z,19.83
2023-02-12T02:02:58.362Z,19.05
2023-02-12T02:05:31.739Z,21.23
2023-02-12T02:07:59.206Z,24.23
2023-02-12T02:10:26.320Z,24.60
2023-02-12T02:13:11.683Z,27.20
2023-02-12T02:15:42.651Z,27.25
2023-02-12T02:18:41.380Z,29.75
2023-02-12T02:21:48.435Z,46.80
2023-02-12T02:24:54.706Z,40.63
2023-02-12T02:27:36.160Z,84.90
2023-02-12T02:30:45.573Z,93.13
2023-02-12T02:33:40.531Z,121.85
2023-02-12T02:36:26.105Z,101.38
2023-02-12T02:39:03.616Z,36.85
2023-02-12T02:42:12.210Z,46.40
2023-02-12T02:45:04.826Z,43.65
2023-02-12T02:47:43.402Z,33.90
2023-02-12T02:50:15.548Z,33.58
2023-02-12T02:52:49.434Z,31.45
2023-02-12T02:55:19.657Z,33.10
2023-02-12T02:58:00.055Z,28.90
2023-02-12T03:00:40.862Z,27.00
2023-02-12T03:03:37.338Z,24.65
2023-02-12T03:06:30.883Z,27.05
2023-02-12T03:11:34.129Z,25.20
2023-02-12T03:14:20.078Z,33.65
2023-02-12T03:17:07.520Z,38.85
2023-02-12T03:20:04.477Z,35.97
2023-02-12T03:22:40.589Z,29.65
2023-02-12T03:25:14.894Z,31.80
2023-02-12T03:27:53.389Z,31.77
2023-02-12T03:30:22.060Z,31.50
2023-02-12T03:33:22.784Z,31.70
2023-02-12T03:36:03.547Z,34.17
2023-02-12T03:38:43.580Z,45.20
2023-02-12T03:41:21.748Z,43.42
2023-02-12T03:44:04.047Z,37.42
2023-02-12T03:46:45.024Z,41.30
2023-02-12T03:49:29.122Z,46.25
2023-02-12T03:51:58.320Z,45.25
2023-02-12T03:54:26.510Z,51.67
2023-02-12T03:57:11.099Z,42.83
2023-02-12T03:59:40.561Z,41.40
2023-02-12T04:02:08.317Z,42.15
2023-02-12T04:04:35.906Z,40.33
2023-02-12T04:07:03.124Z,37.15
2023-02-12T04:09:31.934Z,30.77
2023-02-12T04:12:28.005Z,25.27
2023-02-12T04:15:34.654Z,29.00
2023-02-12T04:18:15.956Z,30.15
2023-02-12T04:21:20.504Z,27.42
2023-02-12T04:24:32.607Z,21.27
2023-02-12T04:27:34.404Z,18.63
2023-02-12T04:30:16.937Z,23.20
2023-02-12T04:32:53.888Z,26.02
2023-02-12T04:35:52.165Z,21.70
2023-02-12T04:38:59.299Z,19.30
2023-02-12T04:41:26.825Z,20.00
2023-02-12T04:43:56.682Z,19.67
2023-02-12T04:46:23.627Z,20.02
2023-02-12T04:48:59.074Z,21.30
2023-02-12T04:51:26.029Z,22.80
2023-02-12T04:53:53.071Z,24.55
2023-02-12T04:56:20.155Z,21.77
2023-02-12T04:58:47.015Z,20.75
2023-02-12T05:01:14.350Z,20.63
2023-02-12T05:03:44.096Z,21.95
2023-02-12T05:06:11.549Z,18.75
2023-02-12T05:08:38.437Z,20.25
2023-02-12T05:11:07.864Z,19.92
2023-02-12T05:13:35.211Z,18.55
2023-02-12T05:16:08.776Z,20.45
2023-02-12T05:18:36.060Z,20.48
2023-02-12T05:21:05.286Z,20.52
2023-02-12T05:23:36.518Z,20.50
2023-02-12T05:28:58.502Z,23.35
2023-02-12T05:31:25.865Z,22.73
2023-02-12T05:33:53.492Z,25.30
2023-02-12T05:36:23.997Z,22.35
2023-02-12T05:38:52.764Z,21.85
2023-02-12T05:41:23.330Z,23.65
2023-02-12T05:43:50.826Z,22.73
2023-02-12T05:46:20.082Z,23.42
2023-02-12T05:48:47.624Z,26.10
2023-02-12T05:51:21.911Z,27.63
2023-02-12T05:53:51.626Z,24.67
2023-02-12T05:56:25.433Z,23.33
2023-02-12T05:59:02.341Z,24.23
2023-02-12T06:01:34.050Z,23.83
2023-02-12T06:04:04.361Z,30.88
2023-02-12T06:06:32.622Z,27.17
2023-02-12T06:09:01.201Z,28.63
2023-02-12T06:11:28.696Z,28.25
2023-02-12T06:13:55.571Z,30.05
2023-02-12T06:16:26.529Z,28.73
2023-02-12T06:18:55.023Z,28.33
2023-02-12T06:21:24.306Z,32.03
2023-02-12T06:23:52.836Z,31.55
2023-02-12T06:26:20.733Z,35.97
2023-02-12T06:28:48.330Z,32.90
2023-02-12T06:31:32.566Z,36.80
2023-02-12T06:34:05.493Z,35.70
2023-02-12T06:36:32.619Z,34.15
2023-02-12T06:39:03.010Z,36.38
2023-02-12T06:41:30.645Z,34.38
2023-02-12T06:43:57.618Z,34.83
2023-02-12T06:46:25.043Z,37.53
2023-02-12T06:48:57.808Z,35.17
2023-02-12T06:51:26.758Z,31.23
2023-02-12T06:53:55.694Z,35.00
2023-02-12T06:56:24.653Z,33.70
2023-02-12T06:59:01.056Z,32.15
2023-02-12T07:01:29.961Z,36.63
2023-02-12T07:04:00.887Z,35.70
2023-02-12T07:06:29.666Z,33.40
2023-02-12T07:08:57.646Z,37.00
2023-02-12T07:11:27.669Z,38.65
2023-02-12T07:13:54.734Z,38.25
2023-02-12T07:16:22.558Z,37.28
2023-02-12T07:18:49.632Z,35.25
2023-02-12T07:21:17.471Z,38.65
2023-02-12T07:23:52.769Z,39.13
2023-02-12T07:26:22.035Z,37.45
2023-02-12T07:28:50.859Z,38.67
2023-02-12T07:31:22.574Z,34.22
2023-02-12T07:33:55.110Z,31.75
2023-02-12T07:36:23.099Z,34.38
2023-02-12T07:38:50.179Z,35.78
2023-02-12T07:41:24.529Z,34.40
2023-02-12T07:43:58.198Z,36.72
2023-02-12T07:46:29.925Z,37.17
2023-02-12T07:49:04.493Z,39.88
2023-02-12T07:51:33.215Z,39.30
2023-02-12T07:54:01.551Z,33.63
2023-02-12T07:56:32.753Z,37.75
2023-02-12T07:59:06.352Z,37.60
2023-02-12T08:01:42.220Z,41.20
2023-02-12T08:04:15.736Z,36.42
2023-02-12T08:06:46.280Z,39.85
2023-02-12T08:09:17.511Z,39.42
2023-02-12T08:11:45.498Z,42.00
2023-02-12T08:14:15.813Z,39.60
2023-02-12T08:16:45.080Z,40.47
2023-02-12T08:19:19.782Z,39.80
2023-02-12T08:21:52.875Z,37.28
2023-02-12T08:24:21.975Z,41.17
2023-02-12T08:26:49.016Z,37.67
2023-02-12T08:29:20.255Z,37.30
2023-02-12T08:31:50.148Z,38.22
2023-02-12T08:34:21.541Z,39.63
2023-02-12T08:36:51.681Z,38.08
2023-02-12T08:39:18.961Z,36.03
2023-02-12T08:41:47.617Z,38.58
2023-02-12T08:44:15.738Z,39.53
2023-02-12T08:46:53.434Z,38.30
2023-02-12T08:49:25.450Z,38.20
2023-02-12T08:51:55.349Z,41.75
2023-02-12T08:54:26.554Z,38.70
2023-02-12T08:56:58.789Z,39.65
2023-02-12T08:59:25.692Z,40.63
2023-02-12T09:01:53.439Z,37.72
2023-02-12T09:04:24.917Z,38.95
2023-02-12T09:06:53.138Z,35.95
2023-02-12T09:09:20.236Z,36.63
2023-02-12T09:11:47.979Z,35.58
2023-02-12T09:14:18.784Z,34.85
2023-02-12T09:16:46.102Z,38.28
2023-02-12T09:19:15.164Z,36.88
2023-02-12T09:21:42.601Z,35.63
2023-02-12T09:24:10.514Z,37.70
2023-02-12T09:26:37.565Z,36.35
2023-02-12T09:29:05.389Z,38.65
2023-02-12T09:31:34.031Z,39.13
2023-02-12T09:34:04.547Z,36.78
2023-02-12T09:36:32.157Z,35.60
2023-02-12T09:38:59.979Z,40.17
2023-02-12T09:41:50.689Z,39.17
2023-02-12T09:44:53.793Z,35.67
2023-02-12T09:47:36.722Z,39.88
2023-02-12T09:50:40.837Z,37.67
2023-02-12T09:53:15.565Z,38.25
2023-02-12T09:55:42.826Z,35.35
2023-02-12T09:58:35.555Z,32.58
2023-02-12T10:01:13.072Z,34.97
2023-02-12T10:03:41.016Z,34.85
2023-02-12T10:06:14.996Z,33.55
2023-02-12T10:09:19.853Z,37.15
2023-02-12T10:12:13.979Z,33.72
2023-02-12T10:15:14.200Z,34.47
2023-02-12T10:18:04.453Z,34.25
2023-02-12T10:20:49.729Z,33.40
2023-02-12T10:23:50.882Z,35.42
2023-02-12T10:26:33.751Z,33.25
2023-02-12T10:29:14.302Z,30.13
2023-02-12T10:31:46.329Z,30.98
2023-02-12T10:34:21.861Z,29.47
2023-02-12T10:36:52.904Z,30.95
2023-02-12T10:39:24.873Z,30.38
2023-02-12T10:42:17.293Z,32.10
2023-02-12T10:44:44.378Z,28.38
2023-02-12T10:47:20.294Z,30.98
2023-02-12T10:49:57.099Z,28.52
2023-02-12T10:52:39.492Z,27.27
2023-02-12T10:55:30.071Z,27.40
2023-02-12T10:58:04.040Z,28.48
2023-02-12T11:00:36.534Z,25.63
2023-02-12T11:03:22.576Z,26.27
2023-02-12T11:05:50.079Z,24.55
2023-02-12T11:08:37.731Z,24.98
2023-02-12T11:11:16.776Z,24.10
2023-02-12T11:14:20.123Z,24.55
2023-02-12T11:17:00.002Z,25.90
2023-02-12T11:19:30.396Z,25.30
2023-02-12T11:22:14.684Z,24.95
2023-02-12T11:24:42.011Z,22.90
2023-02-12T11:27:15.838Z,22.27
2023-02-12T11:29:44.670Z,23.25
2023-02-12T11:32:20.658Z,23.50
2023-02-12T11:35:18.956Z,22.15
2023-02-12T11:37:48.276Z,21.42
2023-02-12T11:40:28.244Z,21.20
2023-02-12T11:43:08.052Z,22.38
2023-02-12T11:45:49.927Z,20.27
2023-02-12T11:48:34.730Z,22.85
2023-02-12T11:51:08.449Z,20.77
2023-02-12T11:53:47.862Z,20.90
2023-02-12T11:56:15.274Z,19.98
2023-02-12T11:58:43.034Z,20.05
2023-02-12T12:01:28.449Z,19.85
2023-02-12T12:04:18.015Z,16.75
2023-02-12T12:06:52.220Z,16.98
2023-02-12T12:09:35.207Z,15.52
2023-02-12T12:12:24.469Z,14.88
2023-02-12T12:15:19.474Z,15.25
2023-02-12T12:18:25.421Z,15.70
2023-02-12T12:21:04.029Z,15.52
2023-02-12T12:23:46.461Z,14.23
2023-02-12T12:26:28.844Z,12.15
2023-02-12T12:29:22.060Z,14.48
2023-02-12T12:32:07.284Z,11.52
2023-02-12T12:34:34.194Z,9.02
2023-02-12T12:37:30.243Z,9.20
2023-02-12T12:40:26.830Z,9.15
2023-02-12T12:43:03.325Z,8.93
2023-02-12T12:46:01.574Z,9.57
2023-02-12T12:49:10.221Z,9.55
2023-02-12T12:52:35.233Z,8.68
2023-02-12T12:55:21.456Z,9.23
2023-02-12T12:58:31.055Z,7.22
2023-02-12T13:01:34.774Z,5.93
2023-02-12T13:04:52.785Z,6.32
2023-02-12T13:08:06.366Z,6.55
2023-02-12T13:10:39.399Z,6.45
2023-02-12T13:13:34.395Z,6.13
2023-02-12T13:16:04.733Z,5.47
2023-02-12T13:18:55.307Z,5.18
2023-02-12T13:21:56.516Z,5.28
2023-02-12T13:24:55.542Z,4.85
2023-02-12T13:27:29.116Z,5.60
2023-02-12T13:30:16.184Z,5.05
2023-02-12T13:32:51.922Z,4.97
2023-02-12T13:35:23.354Z,3.80
2023-02-12T13:37:54.637Z,3.95
2023-02-12T13:40:27.747Z,3.42
2023-02-12T13:43:24.738Z,3.90
2023-02-12T13:46:22.422Z,4.57
2023-02-12T13:49:37.171Z,4.57
2023-02-12T13:52:31.224Z,4.40
2023-02-12T13:55:26.226Z,4.03
2023-02-12T13:58:34.899Z,3.85
2023-02-12T14:01:10.937Z,3.53
2023-02-12T14:03:39.214Z,3.90
2023-02-12T14:06:21.687Z,4.47
2023-02-12T14:08:54.476Z,4.20
2023-02-12T14:11:25.048Z,3.13
2023-02-12T14:13:59.423Z,3.30
2023-02-12T14:16:29.356Z,3.67
2023-02-12T14:19:38.447Z,3.20
2023-02-12T14:22:28.112Z,3.47
2023-02-12T14:25:20.439Z,3.70
2023-02-12T14:27:57.152Z,3.83
2023-02-12T14:30:40.340Z,3.40
2023-02-12T14:33:07.700Z,3.78
2023-02-12T14:35:38.828Z,3.22
2023-02-12T14:38:11.936Z,3.42
2023-02-12T14:40:49.342Z,3.40
2023-02-12T14:43:34.443Z,4.32
2023-02-12T14:46:24.123Z,4.40
2023-02-12T14:49:06.061Z,4.00
2023-02-12T14:51:51.146Z,3.10
2023-02-12T14:54:56.930Z,3.20
2023-02-12T14:57:44.232Z,3.15
2023-02-12T15:00:17.596Z,4.82
2023-02-12T15:03:01.093Z,4.53
2023-02-12T15:05:32.091Z,4.43
2023-02-12T15:08:23.840Z,4.00
2023-02-12T15:10:57.176Z,3.90
2023-02-12T15:13:31.519Z,4.13
2023-02-12T15:16:13.020Z,4.68
2023-02-12T15:18:53.763Z,5.10
2023-02-12T15:21:26.628Z,5.40
2023-02-12T15:24:06.141Z,4.82
2023-02-12T15:26:45.350Z,5.10
2023-02-12T15:29:30.817Z,5.57
2023-02-12T15:32:03.178Z,4.80
2023-02-12T15:37:04.960Z,5.13
2023-02-12T15:39:43.663Z,5.15
2023-02-12T15:42:30.735Z,5.57
2023-02-12T15:45:15.724Z,5.28
2023-02-12T15:47:44.484Z,5.75
2023-02-12T15:50:18.267Z,6.22
2023-02-12T15:52:47.523Z,6.07
2023-02-12T15:55:22.055Z,6.47
2023-02-12T15:57:57.598Z,6.32
2023-02-12T16:00:32.803Z,6.32
2023-02-12T16:02:59.732Z,6.10
2023-02-12T16:05:27.575Z,6.28
2023-02-12T16:07:58.224Z,7.80
2023-02-12T16:10:27.216Z,5.88
2023-02-12T16:12:54.997Z,7.13
2023-02-12T16:15:34.608Z,6.25
2023-02-12T16:18:04.268Z,7.55
2023-02-12T16:20:32.279Z,6.28
2023-02-12T16:23:00.903Z,7.60
2023-02-12T16:25:33.721Z,7.28
2023-02-12T16:30:39.854Z,5.97
2023-02-12T16:33:53.423Z,8.05
2023-02-12T16:36:20.248Z,7.50
2023-02-12T16:39:02.977Z,7.88
2023-02-12T16:41:35.527Z,8.27
2023-02-12T16:44:02.365Z,8.10
2023-02-12T16:46:45.073Z,7.75
2023-02-12T16:49:18.118Z,7.38
2023-02-12T16:54:34.353Z,8.30
2023-02-12T16:57:02.386Z,8.57
2023-02-12T16:59:30.068Z,9.38
2023-02-12T17:02:05.497Z,9.73
2023-02-12T17:04:32.518Z,9.85
2023-02-12T17:06:59.425Z,11.55
2023-02-12T17:09:27.787Z,8.23
2023-02-12T17:11:54.644Z,8.52
2023-02-12T17:14:21.731Z,8.60
2023-02-12T17:16:49.632Z,10.00
2023-02-12T17:19:16.624Z,9.55
2023-02-12T17:21:46.763Z,8.75
2023-02-12T17:24:27.255Z,10.80
2023-02-12T17:26:55.267Z,12.20
2023-02-12T17:29:25.522Z,11.15
2023-02-12T17:31:54.127Z,13.70
2023-02-12T17:34:21.974Z,14.63
2023-02-12T17:36:49.302Z,14.50
2023-02-12T17:39:17.211Z,17.23
2023-02-12T17:41:44.775Z,13.90
2023-02-12T17:44:13.853Z,15.50
2023-02-12T17:46:41.735Z,16.23
2023-02-12T17:49:08.697Z,14.95
2023-02-12T17:51:35.654Z,19.00
2023-02-12T17:54:02.640Z,18.13
2023-02-12T17:56:29.604Z,20.58
2023-02-12T17:58:57.059Z,18.17
2023-02-12T18:01:25.014Z,17.42
2023-02-12T18:03:54.564Z,17.40
2023-02-12T18:06:28.704Z,17.50
2023-02-12T18:08:58.284Z,18.33
2023-02-12T18:11:25.872Z,18.45
2023-02-12T18:13:57.612Z,20.77
2023-02-12T18:16:28.782Z,22.20
2023-02-12T18:18:57.250Z,20.27
2023-02-12T18:21:24.149Z,21.45
2023-02-12T18:23:53.249Z,22.08
2023-02-12T18:26:20.626Z,21.48
2023-02-12T18:28:47.823Z,23.27
2023-02-12T18:31:16.465Z,26.30
2023-02-12T18:33:43.447Z,28.92
2023-02-12T18:36:16.987Z,25.83
2023-02-12T18:38:47.022Z,24.90
2023-02-12T18:41:26.455Z,25.73
2023-02-12T18:43:54.881Z,25.00
2023-02-12T18:46:29.952Z,25.83
2023-02-12T18:48:57.608Z,26.13
2023-02-12T18:51:29.798Z,25.88
2023-02-12T18:54:02.918Z,23.33
2023-02-12T18:59:02.724Z,28.55
2023-02-12T19:01:29.891Z,26.33
2023-02-12T19:04:00.327Z,27.67
2023-02-12T19:06:29.418Z,25.77
2023-02-12T19:08:58.282Z,31.38
2023-02-12T19:11:26.662Z,28.27
2023-02-12T19:13:54.685Z,26.33
2023-02-12T19:16:23.865Z,29.13
2023-02-12T19:18:54.921Z,30.60
2023-02-12T19:21:26.284Z,33.45
2023-02-12T19:23:59.793Z,32.58
2023-02-12T19:26:29.388Z,33.97
2023-02-12T19:28:57.450Z,31.50
2023-02-12T19:31:29.540Z,33.20
2023-02-12T19:34:01.361Z,33.93
2023-02-12T19:36:32.727Z,35.00
2023-02-12T19:39:00.238Z,33.95
2023-02-12T19:41:30.228Z,34.30
2023-02-12T19:44:01.355Z,32.22
2023-02-12T19:46:30.933Z,35.65
2023-02-12T19:49:01.198Z,37.05
2023-02-12T19:51:30.305Z,34.83
2023-02-12T19:54:03.125Z,34.22
2023-02-12T19:56:30.985Z,37.13
2023-02-12T19:58:59.112Z,41.17
2023-02-12T20:01:26.909Z,37.80
2023-02-12T20:03:54.739Z,39.42
2023-02-12T20:06:32.631Z,40.30
2023-02-12T20:08:59.720Z,39.42
2023-02-12T20:11:31.331Z,41.47
2023-02-12T20:13:59.070Z,42.90
2023-02-12T20:16:35.056Z,41.70
2023-02-12T20:19:12.271Z,44.05
2023-02-12T20:21:40.382Z,43.80
2023-02-12T20:24:07.844Z,43.05
2023-02-12T20:26:36.056Z,38.42
2023-02-12T20:29:05.338Z,41.45
2023-02-12T20:31:35.976Z,44.75
2023-02-12T20:34:08.061Z,40.67
2023-02-12T20:36:40.226Z,39.35
2023-02-12T20:39:10.937Z,42.63
2023-02-12T20:41:38.359Z,43.88
2023-02-12T20:44:08.133Z,42.28
2023-02-12T20:46:37.934Z,35.97
2023-02-12T20:49:05.967Z,42.42
2023-02-12T20:51:33.470Z,35.92
2023-02-12T20:54:02.355Z,38.85
2023-02-12T20:56:36.107Z,42.60
2023-02-12T20:59:05.725Z,39.85
2023-02-12T21:01:36.937Z,43.17
2023-02-12T21:04:14.436Z,35.90
2023-02-12T21:06:42.307Z,38.95
2023-02-12T21:09:11.427Z,37.85
2023-02-12T21:11:40.964Z,34.92
2023-02-12T21:14:21.953Z,41.35
2023-02-12T21:16:53.660Z,36.25
2023-02-12T21:19:20.771Z,36.35
2023-02-12T21:21:47.996Z,36.97
2023-02-12T21:24:22.875Z,37.45
2023-02-12T21:26:51.880Z,34.70
2023-02-12T21:29:19.931Z,37.92
2023-02-12T21:31:49.881Z,37.25
2023-02-12T21:34:21.908Z,43.50
2023-02-12T21:36:50.527Z,41.03
2023-02-12T21:39:25.421Z,39.17
2023-02-12T21:41:56.173Z,35.45
2023-02-12T21:44:25.093Z,38.47
2023-02-12T21:46:53.243Z,37.00
2023-02-12T21:49:28.188Z,36.92
2023-02-12T21:52:05.913Z,38.72
2023-02-12T21:54:33.784Z,34.30
2023-02-12T21:57:01.290Z,40.35
2023-02-12T21:59:31.745Z,37.13
2023-02-12T22:02:03.682Z,42.25
2023-02-12T22:04:30.728Z,41.80
2023-02-12T22:06:59.793Z,36.55
2023-02-12T22:09:26.713Z,41.22
2023-02-12T22:11:53.874Z,43.10
2023-02-12T22:14:22.100Z,40.67
2023-02-12T22:16:49.231Z,37.28
2023-02-12T22:19:16.328Z,36.97
2023-02-12T22:21:44.339Z,35.58
2023-02-12T22:24:15.749Z,34.90
2023-02-12T22:26:43.202Z,40.65
2023-02-12T22:29:13.254Z,32.10
2023-02-12T22:31:42.143Z,37.72
2023-02-12T22:34:15.069Z,37.85
2023-02-12T22:36:43.108Z,36.67
2023-02-12T22:39:13.279Z,36.53
2023-02-12T22:41:42.026Z,38.50
2023-02-12T22:44:11.799Z,40.75
2023-02-12T22:46:38.991Z,40.78
2023-02-12T22:49:06.005Z,39.17
2023-02-12T22:51:34.588Z,36.47
2023-02-12T22:54:01.597Z,39.83
2023-02-12T22:56:28.881Z,37.78
2023-02-12T22:58:58.348Z,41.47
2023-02-12T23:01:26.583Z,40.22
2023-02-12T23:03:54.297Z,39.25
2023-02-12T23:06:31.958Z,43.88
2023-02-12T23:09:02.635Z,45.13
2023-02-12T23:11:32.744Z,40.33
2023-02-12T23:14:00.729Z,41.60
2023-02-12T23:16:27.844Z,35.42
2023-02-12T23:18:57.146Z,38.67
2023-02-12T23:21:26.748Z,39.88
2023-02-12T23:23:54.252Z,36.92
2023-02-12T23:26:21.847Z,33.47
2023-02-12T23:28:48.920Z,36.60
2023-02-12T23:31:16.133Z,34.90
2023-02-12T23:33:43.593Z,33.40
2023-02-12T23:36:10.647Z,35.72
2023-02-12T23:38:37.625Z,35.15
2023-02-12T23:41:04.607Z,32.78
2023-02-12T23:43:32.968Z,31.60
2023-02-12T23:46:00.215Z,37.70
2023-02-12T23:48:27.292Z,34.72
2023-02-12T23:50:54.314Z,35.60
2023-02-12T23:53:22.488Z,34.05
2023-02-12T23:55:52.409Z,36.60
2023-02-12T23:58:19.956Z,36.40
